createdAt,value
2023-05-21T00:02:19.892Z,9.50
2023-05-21T00:04:47.502Z,8.63
2023-05-21T00:07:15.223Z,7.88
2023-05-21T00:09:41.708Z,8.60
2023-05-21T00:12:09.019Z,8.73
2023-05-21T00:14:36.084Z,8.63
2023-05-21T00:17:02.519Z,9.23
2023-05-21T00:19:29.123Z,9.43
2023-05-21T00:21:55.951Z,8.30
2023-05-21T00:24:22.369Z,8.43
2023-05-21T00:26:48.809Z,9.52
2023-05-21T00:29:15.293Z,8.88
2023-05-21T00:31:41.838Z,10.52
2023-05-21T00:34:08.503Z,9.40
2023-05-21T00:36:35.007Z,8.40
2023-05-21T00:39:02.390Z,10.45
2023-05-21T00:41:30.289Z,9.18
2023-05-21T00:43:57.208Z,9.57
2023-05-21T00:46:24.130Z,9.30
2023-05-21T00:48:51.130Z,9.43
2023-05-21T00:51:18.570Z,10.73
2023-05-21T00:53:46.606Z,9.38
2023-05-21T00:56:13.606Z,10.48
2023-05-21T00:58:40.976Z,10.90
2023-05-21T01:01:13.550Z,10.00
2023-05-21T01:03:40.908Z,10.82
2023-05-21T01:06:08.957Z,11.82
2023-05-21T01:08:37.610Z,10.18
2023-05-21T01:11:06.059Z,10.07
2023-05-21T01:13:36.899Z,11.90
2023-05-21T01:16:06.654Z,9.48
2023-05-21T01:18:35.193Z,9.07
2023-05-21T01:21:02.482Z,9.55
2023-05-21T01:23:29.586Z,11.02
2023-05-21T01:25:56.389Z,10.17
2023-05-21T01:28:22.862Z,10.82
2023-05-21T01:30:49.634Z,9.70
2023-05-21T01:33:48.630Z,12.25
2023-05-21T01:36:28.949Z,9.90
2023-05-21T01:38:55.399Z,10.90
2023-05-21T01:41:22.688Z,14.48
2023-05-21T01:43:50.347Z,11.13
2023-05-21T01:46:21.757Z,10.77
2023-05-21T01:48:49.803Z,11.23
2023-05-21T01:51:16.911Z,10.87
2023-05-21T01:53:43.364Z,10.07
2023-05-21T01:56:11.256Z,12.70
2023-05-21T01:58:38.106Z,10.50
2023-05-21T02:01:05.053Z,11.07
2023-05-21T02:03:31.609Z,13.00
2023-05-21T02:05:58.278Z,10.90
2023-05-21T02:08:25.555Z,11.90
2023-05-21T02:10:52.061Z,9.77
2023-05-21T02:13:24.257Z,10.60
2023-05-21T02:15:54.583Z,10.67
2023-05-21T02:18:21.495Z,10.60
2023-05-21T02:20:47.965Z,11.80
2023-05-21T02:23:14.417Z,9.45
2023-05-21T02:25:40.849Z,12.15
2023-05-21T02:28:07.309Z,12.07
2023-05-21T02:30:33.860Z,12.02
2023-05-21T02:33:01.046Z,11.23
2023-05-21T02:35:27.694Z,11.48
2023-05-21T02:37:58.937Z,10.32
2023-05-21T02:40:25.437Z,12.13
2023-05-21T02:42:51.890Z,11.95
2023-05-21T02:45:18.299Z,11.43
2023-05-21T02:47:44.761Z,11.98
2023-05-21T02:50:11.409Z,9.77
2023-05-21T02:52:37.879Z,11.33
2023-05-21T02:55:04.624Z,11.95
2023-05-21T02:57:31.197Z,9.73
2023-05-21T02:59:57.636Z,10.55
2023-05-21T03:02:24.349Z,10.25
2023-05-21T03:04:51.352Z,10.87
2023-05-21T03:07:20.781Z,9.93
2023-05-21T03:09:47.422Z,10.80
2023-05-21T03:12:14.074Z,10.88
2023-05-21T03:14:42.607Z,11.13
2023-05-21T03:17:09.087Z,11.43
2023-05-21T03:19:36.386Z,10.63
2023-05-21T03:22:06.001Z,12.43
2023-05-21T03:24:33.132Z,10.40
2023-05-21T03:27:01.409Z,10.65
2023-05-21T03:29:28.653Z,12.83
2023-05-21T03:31:55.639Z,11.00
2023-05-21T03:34:22.422Z,11.43
2023-05-21T03:36:49.188Z,11.13
2023-05-21T03:39:15.834Z,12.63
2023-05-21T03:41:42.756Z,11.50
2023-05-21T03:44:09.430Z,10.38
2023-05-21T03:46:36.058Z,12.25
2023-05-21T03:49:02.800Z,11.10
2023-05-21T03:51:30.755Z,12.50
2023-05-21T03:53:59.024Z,11.13
2023-05-21T03:56:26.033Z,12.70
2023-05-21T03:58:52.763Z,10.40
2023-05-21T04:01:19.558Z,11.10
2023-05-21T04:03:46.244Z,14.02
2023-05-21T04:06:12.878Z,12.67
2023-05-21T04:08:39.661Z,11.50
2023-05-21T04:11:06.101Z,12.02
2023-05-21T04:13:32.699Z,14.52
2023-05-21T04:15:59.731Z,11.65
2023-05-21T04:18:26.754Z,11.27
2023-05-21T04:20:53.797Z,11.07
2023-05-21T04:23:20.286Z,11.63
2023-05-21T04:25:52.230Z,11.13
2023-05-21T04:28:21.370Z,10.90
2023-05-21T04:30:47.951Z,12.70
2023-05-21T04:33:18.081Z,10.27
2023-05-21T04:35:47.299Z,11.40
2023-05-21T04:38:14.201Z,11.63
2023-05-21T04:40:40.825Z,11.00
2023-05-21T04:43:08.119Z,9.13
2023-05-21T04:45:34.809Z,9.93
2023-05-21T04:48:01.506Z,10.40
2023-05-21T04:50:30.600Z,10.40
2023-05-21T04:52:58.721Z,8.85
2023-05-21T04:55:25.952Z,9.63
2023-05-21T04:57:52.864Z,11.02
2023-05-21T05:00:20.199Z,8.90
2023-05-21T05:02:46.813Z,10.05
2023-05-21T05:05:13.287Z,8.82
2023-05-21T05:07:39.807Z,9.97
2023-05-21T05:10:06.880Z,9.30
2023-05-21T05:12:33.299Z,10.02
2023-05-21T05:14:59.784Z,9.55
2023-05-21T05:17:26.265Z,10.30
2023-05-21T05:19:53.158Z,8.37
2023-05-21T05:22:19.657Z,8.52
2023-05-21T05:24:46.117Z,9.85
2023-05-21T05:27:12.563Z,9.98
2023-05-21T05:29:39.042Z,9.88
2023-05-21T05:32:05.990Z,9.90
2023-05-21T05:34:32.444Z,9.23
2023-05-21T05:36:58.951Z,7.80
2023-05-21T05:39:25.578Z,10.38
2023-05-21T05:41:52.030Z,11.35
2023-05-21T05:44:18.516Z,8.67
2023-05-21T05:46:45.200Z,7.95
2023-05-21T05:49:11.766Z,9.98
2023-05-21T05:51:38.151Z,9.25
2023-05-21T05:54:04.716Z,8.27
2023-05-21T05:56:31.312Z,9.43
2023-05-21T05:58:59.207Z,10.30
2023-05-21T06:01:26.227Z,10.10
2023-05-21T06:03:52.995Z,11.93
2023-05-21T06:06:19.566Z,10.90
2023-05-21T06:08:46.314Z,30.53
2023-05-21T06:11:13.047Z,12.95
2023-05-21T06:13:39.564Z,11.52
2023-05-21T06:16:06.410Z,10.65
2023-05-21T06:18:32.926Z,17.08
2023-05-21T06:20:59.368Z,12.17
2023-05-21T06:23:25.839Z,13.18
2023-05-21T06:25:52.245Z,11.05
2023-05-21T06:28:18.726Z,11.48
2023-05-21T06:30:45.261Z,12.80
2023-05-21T06:33:12.599Z,10.77
2023-05-21T06:35:40.163Z,11.00
2023-05-21T06:38:06.618Z,10.55
2023-05-21T06:40:33.050Z,11.43
2023-05-21T06:42:59.945Z,9.65
2023-05-21T06:45:26.458Z,9.27
2023-05-21T06:47:52.921Z,9.73
2023-05-21T06:50:20.173Z,10.00
2023-05-21T06:52:46.649Z,9.55
2023-05-21T06:55:13.086Z,8.10
2023-05-21T06:57:39.535Z,8.33
2023-05-21T07:00:06.833Z,9.23
2023-05-21T07:02:33.398Z,7.32
2023-05-21T07:04:59.870Z,6.93
2023-05-21T07:07:26.795Z,9.80
2023-05-21T07:09:53.201Z,8.93
2023-05-21T07:12:19.636Z,8.55
2023-05-21T07:14:46.109Z,9.43
2023-05-21T07:17:12.539Z,8.70
2023-05-21T07:19:39.058Z,10.43
2023-05-21T07:22:06.072Z,8.23
2023-05-21T07:24:32.583Z,8.10
2023-05-21T07:26:59.015Z,7.30
2023-05-21T07:29:25.479Z,11.55
2023-05-21T07:31:51.991Z,8.15
2023-05-21T07:34:18.392Z,8.83
2023-05-21T07:36:44.825Z,9.77
2023-05-21T07:39:11.347Z,7.85
2023-05-21T07:41:37.764Z,9.45
2023-05-21T07:44:04.558Z,8.43
2023-05-21T07:46:31.076Z,8.47
2023-05-21T07:48:57.582Z,9.00
2023-05-21T07:51:24.385Z,9.48
2023-05-21T07:53:51.146Z,10.30
2023-05-21T07:56:18.239Z,9.65
2023-05-21T07:58:45.892Z,9.23
2023-05-21T08:01:12.540Z,8.43
2023-05-21T08:03:39.109Z,10.10
2023-05-21T08:06:10.560Z,9.75
2023-05-21T08:08:36.953Z,8.18
2023-05-21T08:11:03.421Z,12.33
2023-05-21T08:13:30.725Z,7.95
2023-05-21T08:15:57.265Z,10.63
2023-05-21T08:18:31.824Z,9.02
2023-05-21T08:21:00.344Z,9.00
2023-05-21T08:23:27.244Z,9.03
2023-05-21T08:25:53.752Z,8.35
2023-05-21T08:28:22.299Z,8.73
2023-05-21T08:30:48.927Z,11.57
2023-05-21T08:33:15.583Z,12.48
2023-05-21T08:35:42.020Z,8.97
2023-05-21T08:38:08.418Z,7.57
2023-05-21T08:40:35.597Z,12.95
2023-05-21T08:43:02.049Z,9.38
2023-05-21T08:45:38.414Z,9.13
2023-05-21T08:48:06.398Z,9.37
2023-05-21T08:50:33.313Z,9.13
2023-05-21T08:53:01.399Z,10.90
2023-05-21T08:55:28.451Z,8.30
2023-05-21T08:57:55.199Z,8.10
2023-05-21T09:00:21.809Z,8.73
2023-05-21T09:02:48.346Z,8.73
2023-05-21T09:05:15.219Z,9.98
2023-05-21T09:07:55.720Z,8.10
2023-05-21T09:10:26.814Z,10.05
2023-05-21T09:12:53.407Z,9.10
2023-05-21T09:15:20.070Z,9.32
2023-05-21T09:17:48.127Z,8.93
2023-05-21T09:20:18.840Z,9.75
2023-05-21T09:22:47.160Z,11.63
2023-05-21T09:25:18.875Z,10.37
2023-05-21T09:27:45.348Z,11.25
2023-05-21T09:30:13.702Z,9.70
2023-05-21T09:32:41.430Z,9.85
2023-05-21T09:35:09.609Z,9.07
2023-05-21T09:37:40.839Z,10.07
2023-05-21T09:40:10.728Z,9.90
2023-05-21T09:42:39.967Z,10.00
2023-05-21T09:45:10.935Z,11.95
2023-05-21T09:47:45.493Z,8.70
2023-05-21T09:50:24.318Z,10.37
2023-05-21T09:52:52.789Z,9.32
2023-05-21T09:55:23.051Z,10.52
2023-05-21T09:57:50.945Z,8.55
2023-05-21T10:00:21.228Z,10.68
2023-05-21T10:02:49.542Z,9.63
2023-05-21T10:05:17.606Z,10.55
2023-05-21T10:07:51.272Z,9.85
2023-05-21T10:10:20.780Z,10.38
2023-05-21T10:12:51.627Z,11.65
2023-05-21T10:15:23.608Z,10.17
2023-05-21T10:17:50.607Z,9.80
2023-05-21T10:20:17.459Z,10.43
2023-05-21T10:22:45.065Z,11.00
2023-05-21T10:25:13.287Z,10.02
2023-05-21T10:27:41.117Z,11.73
2023-05-21T10:30:08.586Z,11.23
2023-05-21T10:32:35.307Z,11.13
2023-05-21T10:35:02.462Z,12.82
2023-05-21T10:37:29.597Z,12.70
2023-05-21T10:39:56.888Z,9.73
2023-05-21T10:42:32.289Z,12.65
2023-05-21T10:45:32.382Z,11.77
2023-05-21T10:48:17.143Z,10.75
2023-05-21T10:51:06.523Z,10.90
2023-05-21T10:53:58.536Z,12.20
2023-05-21T10:56:38.864Z,12.07
2023-05-21T10:59:22.249Z,12.05
2023-05-21T11:01:52.762Z,15.43
2023-05-21T11:04:29.282Z,14.88
2023-05-21T11:06:58.081Z,14.90
2023-05-21T11:09:26.669Z,12.18
2023-05-21T11:11:58.123Z,14.93
2023-05-21T11:14:34.924Z,16.80
2023-05-21T11:17:07.380Z,14.30
2023-05-21T11:19:45.143Z,16.53
2023-05-21T11:22:21.358Z,14.80
2023-05-21T11:24:50.628Z,14.10
2023-05-21T11:27:36.641Z,16.30
2023-05-21T11:30:08.087Z,15.20
2023-05-21T11:33:01.514Z,14.50
2023-05-21T11:35:28.026Z,15.02
2023-05-21T11:37:54.495Z,16.10
2023-05-21T11:40:41.473Z,17.60
2023-05-21T11:43:07.982Z,13.40
2023-05-21T11:45:34.993Z,14.87
2023-05-21T11:48:01.702Z,14.95
2023-05-21T11:50:30.734Z,15.57
2023-05-21T11:52:57.794Z,15.32
2023-05-21T11:55:25.857Z,15.00
2023-05-21T11:57:53.827Z,18.70
2023-05-21T12:00:20.316Z,15.15
2023-05-21T12:02:50.613Z,16.20
2023-05-21T12:05:17.677Z,18.65
2023-05-21T12:07:48.665Z,16.90
2023-05-21T12:10:15.373Z,16.73
2023-05-21T12:12:53.817Z,18.70
2023-05-21T12:15:21.335Z,18.10
2023-05-21T12:17:51.026Z,17.75
2023-05-21T12:20:17.642Z,21.52
2023-05-21T12:22:44.743Z,22.57
2023-05-21T12:25:12.085Z,22.92
2023-05-21T12:27:39.169Z,22.90
2023-05-21T12:30:06.709Z,21.80
2023-05-21T12:32:33.170Z,20.73
2023-05-21T12:34:59.847Z,21.30
2023-05-21T12:37:32.588Z,23.38
2023-05-21T12:40:10.884Z,22.58
2023-05-21T12:42:37.385Z,24.17
2023-05-21T12:45:08.349Z,24.95
2023-05-21T12:47:35.797Z,22.97
2023-05-21T12:50:09.335Z,22.25
2023-05-21T12:52:35.738Z,21.00
2023-05-21T12:55:02.152Z,25.17
2023-05-21T12:57:36.909Z,23.98
2023-05-21T13:00:06.780Z,22.17
2023-05-21T13:02:35.523Z,21.58
2023-05-21T13:05:04.816Z,22.00
2023-05-21T13:07:32.719Z,22.33
2023-05-21T13:10:00.215Z,24.20
2023-05-21T13:12:29.196Z,22.53
2023-05-21T13:15:06.652Z,24.60
2023-05-21T13:17:33.136Z,22.60
2023-05-21T13:20:27.400Z,22.42
2023-05-21T13:22:54.213Z,23.35
2023-05-21T13:25:22.286Z,22.87
2023-05-21T13:27:49.730Z,22.35
2023-05-21T13:30:16.206Z,22.55
2023-05-21T13:32:43.411Z,23.10
2023-05-21T13:35:11.189Z,23.35
2023-05-21T13:37:39.711Z,23.67
2023-05-21T13:40:10.872Z,20.92
2023-05-21T13:42:38.488Z,21.17
2023-05-21T13:45:06.371Z,22.60
2023-05-21T13:47:33.213Z,21.25
2023-05-21T13:49:59.965Z,20.90
2023-05-21T13:52:26.564Z,21.05
2023-05-21T13:54:53.242Z,22.27
2023-05-21T13:57:19.692Z,22.58
2023-05-21T13:59:46.520Z,22.58
2023-05-21T14:02:13.442Z,21.77
2023-05-21T14:04:39.896Z,21.60
2023-05-21T14:07:06.999Z,20.67
2023-05-21T14:09:33.911Z,20.23
2023-05-21T14:12:01.434Z,21.08
2023-05-21T14:14:27.966Z,21.13
2023-05-21T14:16:55.533Z,21.15
2023-05-21T14:19:22.121Z,19.67
2023-05-21T14:21:52.103Z,23.48
2023-05-21T14:24:18.954Z,22.17
2023-05-21T14:26:45.787Z,21.63
2023-05-21T14:29:12.451Z,19.83
2023-05-21T14:31:39.332Z,21.13
2023-05-21T14:34:07.864Z,21.23
2023-05-21T14:36:34.896Z,22.13
2023-05-21T14:39:01.429Z,25.07
2023-05-21T14:41:27.977Z,22.75
2023-05-21T14:43:54.748Z,22.08
2023-05-21T14:46:21.970Z,22.27
2023-05-21T14:48:48.538Z,23.30
2023-05-21T14:51:15.079Z,22.67
2023-05-21T14:53:41.570Z,20.52
2023-05-21T14:56:08.282Z,24.05
2023-05-21T14:58:34.714Z,22.23
2023-05-21T15:01:02.433Z,22.55
2023-05-21T15:03:28.995Z,20.97
2023-05-21T15:05:55.676Z,21.80
2023-05-21T15:08:22.674Z,18.77
2023-05-21T15:10:49.290Z,23.30
2023-05-21T15:13:15.766Z,22.17
2023-05-21T15:15:42.226Z,25.43
2023-05-21T15:18:09.034Z,24.45
2023-05-21T15:20:35.678Z,23.33
2023-05-21T15:25:31.569Z,22.77
2023-05-21T15:27:58.055Z,22.17
2023-05-21T15:30:27.151Z,22.70
2023-05-21T15:32:54.175Z,23.30
2023-05-21T15:35:20.759Z,24.33
2023-05-21T15:37:47.265Z,22.55
2023-05-21T15:40:13.879Z,25.30
2023-05-21T15:42:40.307Z,24.10
2023-05-21T15:45:07.346Z,26.88
2023-05-21T15:47:34.257Z,25.63
2023-05-21T15:50:00.813Z,24.27
2023-05-21T15:52:27.338Z,25.00
2023-05-21T15:54:53.828Z,26.13
2023-05-21T15:57:20.865Z,27.27
2023-05-21T15:59:47.470Z,26.27
2023-05-21T16:02:13.943Z,25.88
2023-05-21T16:04:40.454Z,25.63
2023-05-21T16:07:06.965Z,26.52
2023-05-21T16:09:33.715Z,22.70
2023-05-21T16:12:00.175Z,25.25
2023-05-21T16:14:29.177Z,24.48
2023-05-21T16:16:56.069Z,24.70
2023-05-21T16:19:22.685Z,25.48
2023-05-21T16:21:49.314Z,23.10
2023-05-21T16:24:16.885Z,25.98
2023-05-21T16:26:43.929Z,22.95
2023-05-21T16:29:10.511Z,25.97
2023-05-21T16:31:38.405Z,25.10
2023-05-21T16:34:04.915Z,29.02
2023-05-21T16:36:31.400Z,24.60
2023-05-21T16:38:57.845Z,27.10
2023-05-21T16:41:24.346Z,26.93
2023-05-21T16:43:54.168Z,25.85
2023-05-21T16:46:20.957Z,25.10
2023-05-21T16:48:47.434Z,27.35
2023-05-21T16:51:14.052Z,25.13
2023-05-21T16:53:40.542Z,23.47
2023-05-21T16:56:07.234Z,28.55
2023-05-21T16:58:34.297Z,25.27
2023-05-21T17:01:00.707Z,25.10
2023-05-21T17:03:27.761Z,25.05
2023-05-21T17:05:54.216Z,25.13
2023-05-21T17:08:20.672Z,24.80
2023-05-21T17:10:47.198Z,23.48
2023-05-21T17:13:21.530Z,23.33
2023-05-21T17:15:48.554Z,25.90
2023-05-21T17:18:15.038Z,24.57
2023-05-21T17:20:43.582Z,23.25
2023-05-21T17:23:10.977Z,24.42
2023-05-21T17:25:37.558Z,25.15
2023-05-21T17:28:04.382Z,26.20
2023-05-21T17:30:30.835Z,26.97
2023-05-21T17:32:58.195Z,25.83
2023-05-21T17:35:24.751Z,23.98
2023-05-21T17:37:53.211Z,24.13
2023-05-21T17:40:21.281Z,24.88
2023-05-21T17:42:48.000Z,23.20
2023-05-21T17:45:14.540Z,25.90
2023-05-21T17:47:41.014Z,25.63
2023-05-21T17:50:08.260Z,24.77
2023-05-21T17:52:34.715Z,26.05
2023-05-21T17:55:01.761Z,27.23
2023-05-21T17:57:28.242Z,27.05
2023-05-21T17:59:55.497Z,26.25
2023-05-21T18:02:23.486Z,24.55
2023-05-21T18:04:50.053Z,25.08
2023-05-21T18:07:16.650Z,28.93
2023-05-21T18:09:43.161Z,25.95
2023-05-21T18:12:09.700Z,27.92
2023-05-21T18:14:36.250Z,25.95
2023-05-21T18:17:02.854Z,27.90
2023-05-21T18:19:30.535Z,23.30
2023-05-21T18:21:57.240Z,27.02
2023-05-21T18:24:23.718Z,27.55
2023-05-21T18:26:50.244Z,27.23
2023-05-21T18:29:16.704Z,27.65
2023-05-21T18:31:45.237Z,29.10
2023-05-21T18:34:11.832Z,26.20
2023-05-21T18:36:41.032Z,25.23
2023-05-21T18:39:09.365Z,26.30
2023-05-21T18:41:39.408Z,28.50
2023-05-21T18:44:06.281Z,27.40
2023-05-21T18:46:33.124Z,28.05
2023-05-21T18:48:59.877Z,26.95
2023-05-21T18:51:26.560Z,27.40
2023-05-21T18:53:53.199Z,30.30
2023-05-21T18:56:19.705Z,28.93
2023-05-21T18:58:47.519Z,29.42
2023-05-21T19:01:14.047Z,28.52
2023-05-21T19:03:40.650Z,32.80
2023-05-21T19:06:08.484Z,32.08
2023-05-21T19:08:35.024Z,26.77
2023-05-21T19:11:01.625Z,30.95
2023-05-21T19:13:28.068Z,30.95
2023-05-21T19:15:54.574Z,33.08
2023-05-21T19:18:21.126Z,31.35
2023-05-21T19:20:47.659Z,30.03
2023-05-21T19:23:14.273Z,29.00
2023-05-21T19:25:41.485Z,31.77
2023-05-21T19:28:07.923Z,33.42
2023-05-21T19:30:36.351Z,31.95
2023-05-21T19:33:03.361Z,31.67
2023-05-21T19:35:30.161Z,30.90
2023-05-21T19:38:00.604Z,32.22
2023-05-21T19:40:28.287Z,29.98
2023-05-21T19:42:54.749Z,33.75
2023-05-21T19:45:21.590Z,31.53
2023-05-21T19:47:48.597Z,31.52
2023-05-21T19:50:15.507Z,28.95
2023-05-21T19:52:42.231Z,28.85
2023-05-21T19:55:10.033Z,30.65
2023-05-21T19:57:37.179Z,31.33
2023-05-21T20:00:05.188Z,32.47
2023-05-21T20:02:31.800Z,30.38
2023-05-21T20:04:59.052Z,29.70
2023-05-21T20:07:25.830Z,29.92
2023-05-21T20:09:52.417Z,32.70
2023-05-21T20:12:19.222Z,37.05
2023-05-21T20:14:47.413Z,29.75
2023-05-21T20:17:14.780Z,33.67
2023-05-21T20:19:41.320Z,29.38
2023-05-21T20:22:07.865Z,30.00
2023-05-21T20:24:34.413Z,30.55
2023-05-21T20:27:01.679Z,30.77
2023-05-21T20:29:28.789Z,31.90
2023-05-21T20:31:55.440Z,31.70
2023-05-21T20:34:21.971Z,33.50
2023-05-21T20:36:49.169Z,33.30
2023-05-21T20:39:15.710Z,32.03
2023-05-21T20:41:44.789Z,36.03
2023-05-21T20:44:11.845Z,30.27
2023-05-21T20:46:39.024Z,31.23
2023-05-21T20:49:06.158Z,33.13
2023-05-21T20:51:33.032Z,31.70
2023-05-21T20:53:59.566Z,35.05
2023-05-21T20:56:40.874Z,31.85
2023-05-21T20:59:09.939Z,33.33
2023-05-21T21:01:37.794Z,34.10
2023-05-21T21:04:04.890Z,35.95
2023-05-21T21:06:31.854Z,32.08
2023-05-21T21:08:58.600Z,30.75
2023-05-21T21:11:25.131Z,31.67
2023-05-21T21:13:51.878Z,31.70
2023-05-21T21:16:18.652Z,32.72
2023-05-21T21:18:46.910Z,31.50
2023-05-21T21:21:13.578Z,35.92
2023-05-21T21:23:40.245Z,33.23
2023-05-21T21:26:07.086Z,35.05
2023-05-21T21:28:33.593Z,34.85
2023-05-21T21:31:00.243Z,36.38
2023-05-21T21:33:26.858Z,33.85
2023-05-21T21:35:53.397Z,35.43
2023-05-21T21:38:19.899Z,34.40
2023-05-21T21:40:46.375Z,33.90
2023-05-21T21:43:12.809Z,32.05
2023-05-21T21:45:39.318Z,35.38
2023-05-21T21:48:06.186Z,34.67
2023-05-21T21:50:32.702Z,34.20
2023-05-21T21:52:59.837Z,31.55
2023-05-21T21:55:26.411Z,34.67
2023-05-21T21:57:52.920Z,34.83
2023-05-21T22:00:19.680Z,35.30
2023-05-21T22:02:48.997Z,33.30
2023-05-21T22:05:15.536Z,36.60
2023-05-21T22:07:46.403Z,33.90
2023-05-21T22:10:16.501Z,34.35
2023-05-21T22:12:43.774Z,34.10
2023-05-21T22:15:18.080Z,34.47
2023-05-21T22:17:44.629Z,31.75
2023-05-21T22:20:11.337Z,35.33
2023-05-21T22:22:37.785Z,32.40
2023-05-21T22:25:04.514Z,33.87
2023-05-21T22:27:30.960Z,33.58
2023-05-21T22:29:57.431Z,33.75
2023-05-21T22:32:23.869Z,34.58
2023-05-21T22:34:50.299Z,32.17
2023-05-21T22:37:16.796Z,31.43
2023-05-21T22:39:43.271Z,33.60
2023-05-21T22:42:09.815Z,29.75
2023-05-21T22:44:36.318Z,32.78
2023-05-21T22:47:03.537Z,30.63
2023-05-21T22:49:32.559Z,34.23
2023-05-21T22:52:05.627Z,32.30
2023-05-21T22:54:32.757Z,31.27
2023-05-21T22:56:59.957Z,32.22
2023-05-21T22:59:26.539Z,31.80
2023-05-21T23:01:53.649Z,31.47
2023-05-21T23:04:35.695Z,33.05
2023-05-21T23:07:06.625Z,31.67
2023-05-21T23:09:33.072Z,31.23
2023-05-21T23:11:59.593Z,31.23
2023-05-21T23:14:26.027Z,35.03
2023-05-21T23:16:53.873Z,31.00
2023-05-21T23:19:21.156Z,29.13
2023-05-21T23:21:47.734Z,29.50
2023-05-21T23:24:14.171Z,31.77
2023-05-21T23:26:40.763Z,33.83
2023-05-21T23:29:07.261Z,30.90
2023-05-21T23:31:33.735Z,30.67
2023-05-21T23:34:01.590Z,31.15
2023-05-21T23:36:28.043Z,33.58
2023-05-21T23:38:54.474Z,32.20
2023-05-21T23:41:20.999Z,33.42
2023-05-21T23:43:47.429Z,31.00
2023-05-21T23:46:13.978Z,32.70
2023-05-21T23:48:40.464Z,37.38
2023-05-21T23:51:07.030Z,33.90
2023-05-21T23:53:33.451Z,34.83
2023-05-21T23:56:00.046Z,34.50
2023-05-21T23:58:26.518Z,36.30
